createdAt,value
2023-05-25T00:01:35.946Z,10.33
2023-05-25T00:04:04.734Z,10.23
2023-05-25T00:06:37.402Z,11.03
2023-05-25T00:09:05.360Z,11.20
2023-05-25T00:11:33.371Z,10.97
2023-05-25T00:14:01.622Z,10.40
2023-05-25T00:16:29.721Z,10.23
2023-05-25T00:18:57.931Z,10.27
2023-05-25T00:21:26.194Z,10.20
2023-05-25T00:23:55.506Z,11.63
2023-05-25T00:26:23.422Z,10.77
2023-05-25T00:28:51.377Z,10.13
2023-05-25T00:31:19.375Z,10.47
2023-05-25T00:33:47.493Z,10.80
2023-05-25T00:36:15.482Z,9.93
2023-05-25T00:38:44.498Z,10.27
2023-05-25T00:41:16.585Z,10.57
2023-05-25T00:43:46.695Z,10.30
2023-05-25T00:46:16.951Z,10.33
2023-05-25T00:48:45.314Z,10.97
2023-05-25T00:51:16.869Z,11.97
2023-05-25T00:53:45.021Z,10.17
2023-05-25T00:56:20.238Z,11.10
2023-05-25T00:58:53.006Z,11.00
2023-05-25T01:01:23.125Z,11.07
2023-05-25T01:03:53.687Z,11.23
2023-05-25T01:06:24.556Z,10.97
2023-05-25T01:09:00.697Z,11.77
2023-05-25T01:11:36.951Z,12.27
2023-05-25T01:14:05.360Z,11.27
2023-05-25T01:16:34.568Z,12.27
2023-05-25T01:19:02.890Z,12.73
2023-05-25T01:21:42.071Z,11.33
2023-05-25T01:24:22.654Z,11.83
2023-05-25T01:27:00.109Z,11.77
2023-05-25T01:29:33.679Z,12.17
2023-05-25T01:32:03.796Z,12.70
2023-05-25T01:34:33.338Z,12.53
2023-05-25T01:37:03.026Z,13.00
2023-05-25T01:39:31.023Z,12.60
2023-05-25T01:41:59.267Z,12.30
2023-05-25T01:44:27.563Z,13.37
2023-05-25T01:47:04.988Z,13.00
2023-05-25T01:49:43.319Z,13.80
2023-05-25T01:52:22.960Z,14.03
2023-05-25T01:54:58.597Z,13.47
2023-05-25T01:57:30.998Z,12.87
2023-05-25T02:00:03.075Z,13.43
2023-05-25T02:02:44.749Z,13.23
2023-05-25T02:05:12.949Z,12.77
2023-05-25T02:07:42.199Z,12.87
2023-05-25T02:10:11.137Z,13.77
2023-05-25T02:12:39.096Z,14.33
2023-05-25T02:15:08.312Z,14.87
2023-05-25T02:17:39.696Z,13.50
2023-05-25T02:20:09.829Z,13.50
2023-05-25T02:22:38.338Z,13.50
2023-05-25T02:25:10.680Z,13.60
2023-05-25T02:27:38.612Z,13.27
2023-05-25T02:30:09.193Z,13.13
2023-05-25T02:32:37.571Z,14.57
2023-05-25T02:35:06.507Z,14.20
2023-05-25T02:37:34.836Z,12.93
2023-05-25T02:40:04.896Z,13.40
2023-05-25T02:42:34.160Z,13.80
2023-05-25T02:45:02.090Z,13.63
2023-05-25T02:47:31.214Z,14.63
2023-05-25T02:49:59.310Z,14.30
2023-05-25T02:52:27.722Z,14.53
2023-05-25T02:54:55.993Z,14.37
2023-05-25T02:57:31.650Z,15.17
2023-05-25T03:00:02.283Z,15.87
2023-05-25T03:02:30.845Z,15.73
2023-05-25T03:05:00.838Z,16.50
2023-05-25T03:07:33.638Z,14.67
2023-05-25T03:10:01.712Z,15.00
2023-05-25T03:12:29.654Z,16.40
2023-05-25T03:14:57.734Z,17.07
2023-05-25T03:17:27.057Z,17.10
2023-05-25T03:19:55.172Z,17.03
2023-05-25T03:22:23.121Z,17.80
2023-05-25T03:24:51.356Z,18.53
2023-05-25T03:27:19.254Z,18.97
2023-05-25T03:29:49.762Z,19.73
2023-05-25T03:32:17.968Z,21.50
2023-05-25T03:34:47.286Z,20.43
2023-05-25T03:37:18.057Z,22.47
2023-05-25T03:39:46.072Z,21.17
2023-05-25T03:42:14.015Z,23.57
2023-05-25T03:44:41.955Z,25.03
2023-05-25T03:47:11.430Z,22.93
2023-05-25T03:49:39.431Z,23.23
2023-05-25T03:52:08.853Z,25.13
2023-05-25T03:54:37.191Z,24.77
2023-05-25T03:57:06.256Z,24.30
2023-05-25T03:59:34.170Z,26.20
2023-05-25T04:02:02.080Z,26.20
2023-05-25T04:04:30.132Z,24.57
2023-05-25T04:06:58.280Z,26.53
2023-05-25T04:09:27.592Z,25.50
2023-05-25T04:11:55.505Z,23.93
2023-05-25T04:14:23.432Z,24.83
2023-05-25T04:16:52.016Z,23.87
2023-05-25T04:19:21.349Z,23.43
2023-05-25T04:21:49.493Z,24.70
2023-05-25T04:24:17.464Z,23.60
2023-05-25T04:26:46.843Z,23.97
2023-05-25T04:29:15.004Z,25.10
2023-05-25T04:32:02.985Z,26.37
2023-05-25T04:34:46.858Z,26.33
2023-05-25T04:37:21.523Z,24.73
2023-05-25T04:39:49.749Z,26.57
2023-05-25T04:42:19.354Z,25.13
2023-05-25T04:44:47.533Z,23.70
2023-05-25T04:47:17.096Z,24.10
2023-05-25T04:49:45.379Z,24.30
2023-05-25T04:52:13.310Z,25.23
2023-05-25T04:54:41.772Z,24.33
2023-05-25T04:57:09.991Z,24.87
2023-05-25T04:59:39.236Z,25.37
2023-05-25T05:02:08.351Z,24.37
2023-05-25T05:04:37.207Z,25.13
2023-05-25T05:07:06.352Z,24.17
2023-05-25T05:09:34.291Z,23.97
2023-05-25T05:12:03.808Z,24.07
2023-05-25T05:14:37.210Z,23.07
2023-05-25T05:17:06.828Z,21.57
2023-05-25T05:19:35.210Z,22.30
2023-05-25T05:22:04.861Z,20.90
2023-05-25T05:24:32.906Z,23.70
2023-05-25T05:27:03.270Z,21.60
2023-05-25T05:29:43.385Z,21.63
2023-05-25T05:32:12.692Z,22.67
2023-05-25T05:34:41.101Z,21.93
2023-05-25T05:37:18.420Z,24.10
2023-05-25T05:39:47.026Z,24.80
2023-05-25T05:42:15.276Z,23.57
2023-05-25T05:44:43.208Z,22.93
2023-05-25T05:47:13.548Z,23.57
2023-05-25T05:49:41.666Z,23.87
2023-05-25T05:52:10.868Z,23.30
2023-05-25T05:54:38.781Z,25.53
2023-05-25T05:57:11.266Z,24.83
2023-05-25T05:59:39.263Z,26.23
2023-05-25T06:02:08.400Z,25.80
2023-05-25T06:04:38.371Z,25.27
2023-05-25T06:07:06.714Z,23.73
2023-05-25T06:09:34.627Z,25.67
2023-05-25T06:12:03.429Z,25.03
2023-05-25T06:14:31.516Z,23.70
2023-05-25T06:17:02.825Z,22.93
2023-05-25T06:19:30.982Z,22.47
2023-05-25T06:22:00.259Z,23.93
2023-05-25T06:24:28.256Z,22.30
2023-05-25T06:26:56.212Z,22.60
2023-05-25T06:29:24.178Z,22.30
2023-05-25T06:31:52.485Z,20.60
2023-05-25T06:34:21.210Z,19.77
2023-05-25T06:36:49.236Z,19.80
2023-05-25T06:39:18.584Z,19.43
2023-05-25T06:41:46.867Z,17.70
2023-05-25T06:44:26.738Z,18.20
2023-05-25T06:46:54.767Z,18.33
2023-05-25T06:49:22.734Z,18.57
2023-05-25T06:51:51.197Z,18.17
2023-05-25T06:54:20.644Z,17.03
2023-05-25T06:56:48.886Z,17.17
2023-05-25T06:59:18.306Z,16.77
2023-05-25T07:01:47.689Z,17.60
2023-05-25T07:04:15.907Z,16.43
2023-05-25T07:06:48.257Z,17.83
2023-05-25T07:09:17.325Z,17.17
2023-05-25T07:11:46.709Z,16.17
2023-05-25T07:14:14.823Z,15.63
2023-05-25T07:16:45.043Z,15.93
2023-05-25T07:19:13.142Z,16.40
2023-05-25T07:21:41.070Z,16.80
2023-05-25T07:24:09.441Z,15.37
2023-05-25T07:26:37.424Z,13.90
2023-05-25T07:29:06.900Z,14.23
2023-05-25T07:31:35.033Z,14.70
2023-05-25T07:34:03.019Z,12.10
2023-05-25T07:36:31.148Z,13.10
2023-05-25T07:38:59.332Z,13.57
2023-05-25T07:41:27.333Z,13.60
2023-05-25T07:43:55.571Z,13.17
2023-05-25T07:46:25.990Z,13.83
2023-05-25T07:48:54.686Z,12.67
2023-05-25T07:51:26.082Z,12.37
2023-05-25T07:53:55.246Z,10.87
2023-05-25T07:56:23.300Z,12.00
2023-05-25T07:58:51.648Z,12.73
2023-05-25T08:01:19.603Z,11.50
2023-05-25T08:03:50.305Z,11.60
2023-05-25T08:06:18.849Z,10.73
2023-05-25T08:08:47.394Z,11.03
2023-05-25T08:11:16.789Z,11.13
2023-05-25T08:13:44.843Z,9.47
2023-05-25T08:16:13.050Z,10.93
2023-05-25T08:18:44.175Z,11.37
2023-05-25T08:21:13.712Z,13.30
2023-05-25T08:23:43.164Z,10.67
2023-05-25T08:26:31.243Z,10.77
2023-05-25T08:28:59.483Z,12.70
2023-05-25T08:31:27.471Z,11.73
2023-05-25T08:33:55.770Z,10.07
2023-05-25T08:36:25.954Z,10.87
2023-05-25T08:38:54.149Z,10.73
2023-05-25T08:41:22.854Z,8.93
2023-05-25T08:43:51.727Z,6.93
2023-05-25T08:46:31.842Z,7.83
2023-05-25T08:49:06.036Z,8.00
2023-05-25T08:51:39.177Z,11.03
2023-05-25T08:54:11.279Z,8.80
2023-05-25T08:56:50.122Z,9.33
2023-05-25T08:59:35.903Z,9.13
2023-05-25T09:02:22.089Z,8.27
2023-05-25T09:04:50.079Z,9.13
2023-05-25T09:07:20.262Z,8.13
2023-05-25T09:09:50.329Z,8.50
2023-05-25T09:12:23.372Z,8.63
2023-05-25T09:14:52.302Z,8.73
2023-05-25T09:17:21.196Z,9.27
2023-05-25T09:19:49.324Z,7.80
2023-05-25T09:22:19.135Z,7.77
2023-05-25T09:24:47.836Z,6.93
2023-05-25T09:27:19.928Z,6.07
2023-05-25T09:29:49.764Z,6.63
2023-05-25T09:32:19.080Z,7.27
2023-05-25T09:34:47.908Z,6.90
2023-05-25T09:37:20.037Z,6.50
2023-05-25T09:39:48.897Z,6.60
2023-05-25T09:42:17.747Z,7.27
2023-05-25T09:44:46.224Z,7.63
2023-05-25T09:47:16.805Z,7.30
2023-05-25T09:49:47.443Z,7.53
2023-05-25T09:52:16.623Z,6.77
2023-05-25T09:54:47.388Z,6.53
2023-05-25T09:57:17.078Z,7.63
2023-05-25T09:59:46.183Z,7.00
2023-05-25T10:02:15.325Z,7.53
2023-05-25T10:04:43.421Z,6.87
2023-05-25T10:07:16.099Z,7.70
2023-05-25T10:09:51.225Z,6.80
2023-05-25T10:12:21.365Z,6.53
2023-05-25T10:14:52.659Z,6.20
2023-05-25T10:17:25.453Z,6.40
2023-05-25T10:19:58.908Z,6.00
2023-05-25T10:22:34.335Z,6.67
2023-05-25T10:25:11.127Z,6.03
2023-05-25T10:27:43.876Z,6.43
2023-05-25T10:30:15.403Z,5.83
2023-05-25T10:32:47.670Z,6.17
2023-05-25T10:35:16.202Z,6.90
2023-05-25T10:37:45.918Z,5.93
2023-05-25T10:40:17.531Z,6.07
2023-05-25T10:42:47.459Z,6.17
2023-05-25T10:45:16.760Z,6.13
2023-05-25T10:47:46.314Z,6.30
2023-05-25T10:50:24.319Z,6.57
2023-05-25T10:53:06.339Z,6.43
2023-05-25T10:55:50.314Z,5.90
2023-05-25T10:58:20.979Z,5.43
2023-05-25T11:01:00.003Z,5.83
2023-05-25T11:03:56.390Z,6.50
2023-05-25T11:07:03.603Z,7.03
2023-05-25T11:09:32.378Z,6.20
2023-05-25T11:12:06.461Z,5.93
2023-05-25T11:14:37.712Z,6.50
2023-05-25T11:17:10.224Z,7.10
2023-05-25T11:19:49.566Z,7.33
2023-05-25T11:22:21.339Z,6.97
2023-05-25T11:24:51.135Z,7.17
2023-05-25T11:27:25.263Z,6.90
2023-05-25T11:29:56.488Z,7.03
2023-05-25T11:32:26.252Z,6.93
2023-05-25T11:34:57.301Z,6.50
2023-05-25T11:37:28.920Z,6.70
2023-05-25T11:39:57.104Z,6.43
2023-05-25T11:42:27.752Z,6.23
2023-05-25T11:44:56.203Z,6.07
2023-05-25T11:47:25.722Z,6.70
2023-05-25T11:49:57.289Z,6.30
2023-05-25T11:52:29.502Z,5.97
2023-05-25T11:54:57.514Z,5.93
2023-05-25T11:57:27.107Z,6.60
2023-05-25T11:59:57.666Z,5.50
2023-05-25T12:02:26.250Z,5.57
2023-05-25T12:04:56.524Z,5.47
2023-05-25T12:07:26.044Z,5.27
2023-05-25T12:10:05.792Z,5.70
2023-05-25T12:12:43.334Z,6.67
2023-05-25T12:15:13.878Z,7.53
2023-05-25T12:17:43.611Z,8.17
2023-05-25T12:20:13.720Z,8.43
2023-05-25T12:22:42.999Z,8.37
2023-05-25T12:25:13.469Z,7.70
2023-05-25T12:27:43.757Z,8.67
2023-05-25T12:30:12.820Z,9.97
2023-05-25T12:32:55.517Z,9.67
2023-05-25T12:35:23.631Z,9.90
2023-05-25T12:37:51.634Z,10.80
2023-05-25T12:40:21.758Z,9.80
2023-05-25T12:42:58.598Z,9.47
2023-05-25T12:45:26.747Z,8.30
2023-05-25T12:47:54.831Z,11.37
2023-05-25T12:50:22.860Z,10.17
2023-05-25T12:52:50.938Z,10.27
2023-05-25T12:55:27.031Z,8.90
2023-05-25T12:57:55.841Z,9.53
2023-05-25T13:00:27.408Z,9.23
2023-05-25T13:02:55.820Z,9.60
2023-05-25T13:05:26.783Z,8.67
2023-05-25T13:07:57.321Z,11.13
2023-05-25T13:10:26.820Z,10.63
2023-05-25T13:12:57.198Z,11.03
2023-05-25T13:15:27.879Z,10.87
2023-05-25T13:17:58.302Z,10.87
2023-05-25T13:20:29.615Z,10.90
2023-05-25T13:22:57.813Z,9.50
2023-05-25T13:25:27.254Z,10.63
2023-05-25T13:27:57.897Z,10.23
2023-05-25T13:30:27.899Z,9.30
2023-05-25T13:32:55.843Z,8.37
2023-05-25T13:35:37.729Z,9.97
2023-05-25T13:38:06.379Z,8.77
2023-05-25T13:40:34.441Z,7.63
2023-05-25T13:43:02.383Z,6.97
2023-05-25T13:45:31.700Z,7.70
2023-05-25T13:47:59.859Z,7.30
2023-05-25T13:50:27.898Z,7.23
2023-05-25T13:52:55.861Z,8.80
2023-05-25T13:55:24.037Z,8.37
2023-05-25T13:57:52.852Z,9.60
2023-05-25T14:00:21.844Z,9.97
2023-05-25T14:02:51.702Z,8.47
2023-05-25T14:05:20.671Z,8.90
2023-05-25T14:07:48.688Z,9.23
2023-05-25T14:10:19.504Z,9.37
2023-05-25T14:12:47.520Z,8.83
2023-05-25T14:15:15.447Z,9.43
2023-05-25T14:17:43.501Z,10.10
2023-05-25T14:20:16.210Z,10.43
2023-05-25T14:22:44.303Z,9.53
2023-05-25T14:25:12.280Z,9.90
2023-05-25T14:27:40.320Z,10.00
2023-05-25T14:30:10.010Z,9.77
2023-05-25T14:32:38.163Z,9.57
2023-05-25T14:35:07.544Z,9.07
2023-05-25T14:37:37.144Z,9.10
2023-05-25T14:40:06.174Z,9.87
2023-05-25T14:42:34.305Z,9.97
2023-05-25T14:45:02.252Z,10.30
2023-05-25T14:47:30.477Z,11.07
2023-05-25T14:49:58.437Z,10.20
2023-05-25T14:52:28.718Z,10.53
2023-05-25T14:54:58.278Z,10.73
2023-05-25T14:57:27.209Z,10.70
2023-05-25T14:59:55.185Z,11.57
2023-05-25T15:02:23.287Z,10.57
2023-05-25T15:04:53.988Z,10.33
2023-05-25T15:07:22.066Z,9.83
2023-05-25T15:09:50.463Z,10.30
2023-05-25T15:12:19.742Z,9.43
2023-05-25T15:14:48.021Z,9.80
2023-05-25T15:17:15.986Z,8.63
2023-05-25T15:19:43.964Z,8.90
2023-05-25T15:22:11.964Z,8.90
2023-05-25T15:24:39.864Z,8.33
2023-05-25T15:27:07.767Z,8.70
2023-05-25T15:29:37.025Z,9.17
2023-05-25T15:32:06.994Z,7.77
2023-05-25T15:34:35.006Z,8.40
2023-05-25T15:37:03.488Z,8.83
2023-05-25T15:39:31.582Z,8.23
2023-05-25T15:41:59.544Z,8.10
2023-05-25T15:44:27.552Z,8.50
2023-05-25T15:46:57.166Z,8.00
2023-05-25T15:49:25.068Z,7.97
2023-05-25T15:51:53.812Z,7.53
2023-05-25T15:54:21.818Z,7.60
2023-05-25T15:56:49.752Z,7.50
2023-05-25T15:59:17.912Z,7.83
2023-05-25T16:01:45.946Z,7.80
2023-05-25T16:04:15.749Z,8.80
2023-05-25T16:06:43.750Z,6.97
2023-05-25T16:09:12.382Z,7.20
2023-05-25T16:11:40.338Z,7.90
2023-05-25T16:14:08.285Z,7.77
2023-05-25T16:16:36.429Z,7.90
2023-05-25T16:19:04.492Z,7.33
2023-05-25T16:21:37.731Z,7.63
2023-05-25T16:24:06.622Z,7.10
2023-05-25T16:26:34.921Z,7.17
2023-05-25T16:29:03.177Z,6.43
2023-05-25T16:31:31.160Z,6.90
2023-05-25T16:33:59.093Z,7.40
2023-05-25T16:36:27.029Z,7.30
2023-05-25T16:38:56.686Z,7.33
2023-05-25T16:41:24.634Z,7.37
2023-05-25T16:43:52.588Z,6.90
2023-05-25T16:46:21.563Z,7.93
2023-05-25T16:48:49.531Z,7.23
2023-05-25T16:51:17.664Z,6.93
2023-05-25T16:53:45.710Z,6.60
2023-05-25T16:56:15.330Z,7.60
2023-05-25T16:58:43.346Z,7.07
2023-05-25T17:01:12.551Z,7.13
2023-05-25T17:03:40.678Z,6.87
2023-05-25T17:06:09.441Z,6.83
2023-05-25T17:08:37.389Z,6.37
2023-05-25T17:11:05.760Z,7.50
2023-05-25T17:13:35.603Z,6.60
2023-05-25T17:16:03.721Z,6.17
2023-05-25T17:18:31.717Z,6.20
2023-05-25T17:20:59.794Z,5.57
2023-05-25T17:23:27.711Z,5.40
2023-05-25T17:25:55.752Z,5.77
2023-05-25T17:28:23.725Z,5.27
2023-05-25T17:30:53.358Z,5.23
2023-05-25T17:33:21.369Z,4.83
2023-05-25T17:35:49.780Z,5.67
2023-05-25T17:38:17.783Z,4.77
2023-05-25T17:40:46.260Z,5.60
2023-05-25T17:43:15.601Z,6.03
2023-05-25T17:45:43.738Z,6.37
2023-05-25T17:48:13.169Z,6.47
2023-05-25T17:50:41.111Z,6.20
2023-05-25T17:53:09.025Z,5.73
2023-05-25T17:55:36.951Z,6.37
2023-05-25T17:58:04.941Z,5.63
2023-05-25T18:00:32.877Z,5.80
2023-05-25T18:03:00.890Z,5.80
2023-05-25T18:05:30.242Z,5.67
2023-05-25T18:07:58.192Z,6.30
2023-05-25T18:10:26.113Z,5.57
2023-05-25T18:12:54.476Z,6.00
2023-05-25T18:15:22.713Z,6.00
2023-05-25T18:17:50.673Z,6.03
2023-05-25T18:20:18.937Z,6.30
2023-05-25T18:22:48.219Z,7.10
2023-05-25T18:25:16.131Z,8.03
2023-05-25T18:27:44.391Z,7.73
2023-05-25T18:30:13.773Z,12.57
2023-05-25T18:32:41.820Z,10.77
2023-05-25T18:35:10.279Z,7.90
2023-05-25T18:37:38.214Z,7.80
2023-05-25T18:40:11.685Z,7.17
2023-05-25T18:42:39.720Z,7.70
2023-05-25T18:45:08.791Z,11.63
2023-05-25T18:47:36.726Z,9.17
2023-05-25T18:50:07.418Z,7.87
2023-05-25T18:52:35.340Z,8.37
2023-05-25T18:55:03.535Z,7.40
2023-05-25T18:57:33.018Z,6.77
2023-05-25T19:00:01.113Z,7.30
2023-05-25T19:02:30.389Z,8.00
2023-05-25T19:04:58.378Z,6.90
2023-05-25T19:07:26.342Z,7.67
2023-05-25T19:09:54.256Z,7.03
2023-05-25T19:12:22.230Z,7.53
2023-05-25T19:14:51.512Z,8.27
2023-05-25T19:17:19.484Z,7.80
2023-05-25T19:19:47.411Z,8.47
2023-05-25T19:22:15.621Z,8.57
2023-05-25T19:24:48.162Z,8.40
2023-05-25T19:27:19.798Z,8.00
2023-05-25T19:29:48.040Z,7.30
2023-05-25T19:32:18.229Z,6.93
2023-05-25T19:34:46.329Z,6.97
2023-05-25T19:37:14.451Z,7.13
2023-05-25T19:39:42.474Z,7.10
2023-05-25T19:42:10.493Z,9.47
2023-05-25T19:44:40.456Z,7.30
2023-05-25T19:47:08.578Z,5.90
2023-05-25T19:49:38.150Z,5.73
2023-05-25T19:52:06.944Z,5.57
2023-05-25T19:54:35.081Z,5.67
2023-05-25T19:57:03.131Z,5.93
2023-05-25T19:59:31.353Z,9.73
2023-05-25T20:02:04.461Z,7.17
2023-05-25T20:04:32.541Z,6.43
2023-05-25T20:07:02.010Z,6.87
2023-05-25T20:09:30.892Z,6.80
2023-05-25T20:11:59.665Z,6.67
2023-05-25T20:14:27.689Z,7.00
2023-05-25T20:16:55.948Z,6.10
2023-05-25T20:19:24.113Z,6.10
2023-05-25T20:21:52.397Z,6.80
2023-05-25T20:24:22.092Z,7.17
2023-05-25T20:26:56.279Z,6.93
2023-05-25T20:29:24.512Z,6.53
2023-05-25T20:31:53.072Z,5.83
2023-05-25T20:34:21.084Z,5.97
2023-05-25T20:36:49.071Z,5.23
2023-05-25T20:39:17.091Z,5.77
2023-05-25T20:41:46.571Z,5.43
2023-05-25T20:44:14.528Z,6.60
2023-05-25T20:46:42.745Z,6.43
2023-05-25T20:49:10.754Z,6.93
2023-05-25T20:51:38.740Z,5.93
2023-05-25T20:54:07.142Z,5.73
2023-05-25T20:56:35.054Z,5.90
2023-05-25T20:59:04.468Z,4.67
2023-05-25T21:01:32.762Z,4.97
2023-05-25T21:04:00.890Z,5.30
2023-05-25T21:06:29.233Z,5.60
2023-05-25T21:08:57.203Z,4.93
2023-05-25T21:11:26.144Z,6.93
2023-05-25T21:13:54.180Z,7.37
2023-05-25T21:16:23.782Z,7.07
2023-05-25T21:18:51.728Z,5.07
2023-05-25T21:21:19.708Z,6.33
2023-05-25T21:23:47.773Z,4.60
2023-05-25T21:26:15.852Z,5.43
2023-05-25T21:28:43.757Z,5.13
2023-05-25T21:31:11.716Z,4.77
2023-05-25T21:33:41.290Z,4.87
2023-05-25T21:36:09.700Z,4.23
2023-05-25T21:38:37.632Z,4.57
2023-05-25T21:41:05.838Z,4.20
2023-05-25T21:43:33.875Z,4.63
2023-05-25T21:46:02.364Z,4.87
2023-05-25T21:48:30.298Z,5.03
2023-05-25T21:50:59.708Z,4.60
2023-05-25T21:53:27.700Z,6.00
2023-05-25T21:55:55.615Z,4.47
2023-05-25T21:58:23.540Z,5.20
2023-05-25T22:00:51.593Z,4.60
2023-05-25T22:03:19.717Z,5.07
2023-05-25T22:05:48.071Z,4.70
2023-05-25T22:08:17.372Z,5.07
2023-05-25T22:10:45.412Z,6.07
2023-05-25T22:13:13.389Z,4.77
2023-05-25T22:15:41.298Z,5.90
2023-05-25T22:18:09.261Z,5.07
2023-05-25T22:20:38.822Z,5.93
2023-05-25T22:23:06.825Z,5.30
2023-05-25T22:25:36.073Z,5.77
2023-05-25T22:28:04.270Z,4.97
2023-05-25T22:30:32.224Z,4.93
2023-05-25T22:33:00.364Z,6.10
2023-05-25T22:35:28.347Z,5.40
2023-05-25T22:37:56.296Z,5.70
2023-05-25T22:40:24.698Z,6.10
2023-05-25T22:42:53.980Z,6.00
2023-05-25T22:45:22.465Z,6.33
2023-05-25T22:47:50.489Z,5.70
2023-05-25T22:50:19.128Z,6.40
2023-05-25T22:52:47.050Z,6.23
2023-05-25T22:55:15.477Z,5.63
2023-05-25T22:57:43.841Z,6.93
2023-05-25T23:00:14.186Z,6.23
2023-05-25T23:02:42.327Z,5.30
2023-05-25T23:05:11.165Z,5.87
2023-05-25T23:07:39.180Z,6.43
2023-05-25T23:10:09.048Z,6.73
2023-05-25T23:12:37.256Z,6.40
2023-05-25T23:15:08.088Z,6.50
2023-05-25T23:17:37.463Z,6.10
2023-05-25T23:20:10.493Z,6.77
2023-05-25T23:22:38.945Z,6.27
2023-05-25T23:25:08.409Z,6.20
2023-05-25T23:27:36.367Z,6.47
2023-05-25T23:30:04.845Z,6.37
2023-05-25T23:32:32.835Z,6.20
2023-05-25T23:35:02.263Z,6.47
2023-05-25T23:37:30.176Z,6.73
2023-05-25T23:39:58.100Z,7.40
2023-05-25T23:42:29.046Z,7.33
2023-05-25T23:44:57.052Z,8.00
2023-05-25T23:47:24.996Z,7.10
2023-05-25T23:49:52.948Z,7.07
2023-05-25T23:52:22.511Z,6.47
2023-05-25T23:54:50.844Z,7.13
2023-05-25T23:57:19.126Z,7.20
2023-05-25T23:59:47.373Z,6.60
